sensor_id;sensor_type;location;lat;lon;timestamp;temperature;humidity
22966;DHT22;11649;48.090;9.754;2023-11-22T00:00:59;7.10;99.90
22966;DHT22;11649;48.090;9.754;2023-11-22T00:03:25;7.10;99.90
22966;DHT22;11649;48.090;9.754;2023-11-22T00:05:52;7.10;99.90
22966;DHT22;11649;48.090;9.754;2023-11-22T00:08:19;7.10;99.90
22966;DHT22;11649;48.090;9.754;2023-11-22T00:10:45;7.10;99.90
22966;DHT22;11649;48.090;9.754;2023-11-22T00:13:12;7.10;99.90
22966;DHT22;11649;48.090;9.754;2023-11-22T00:15:39;7.10;99.90
22966;DHT22;11649;48.090;9.754;2023-11-22T00:18:06;7.00;99.90
22966;DHT22;11649;48.090;9.754;2023-11-22T00:20:32;7.00;99.90
22966;DHT22;11649;48.090;9.754;2023-11-22T00:23:00;6.90;99.90
22966;DHT22;11649;48.090;9.754;2023-11-22T00:25:27;6.90;99.90
22966;DHT22;11649;48.090;9.754;2023-11-22T00:27:53;6.90;99.90
22966;DHT22;11649;48.090;9.754;2023-11-22T00:30:21;7.00;99.90
22966;DHT22;11649;48.090;9.754;2023-11-22T00:32:49;7.00;99.90
22966;DHT22;11649;48.090;9.754;2023-11-22T00:35:16;7.10;99.90
22966;DHT22;11649;48.090;9.754;2023-11-22T00:37:43;7.20;99.90
22966;DHT22;11649;48.090;9.754;2023-11-22T00:40:10;7.20;99.90
22966;DHT22;11649;48.090;9.754;2023-11-22T00:42:38;7.20;99.90
22966;DHT22;11649;48.090;9.754;2023-11-22T00:45:07;7.20;99.90
22966;DHT22;11649;48.090;9.754;2023-11-22T00:47:33;7.20;99.90
22966;DHT22;11649;48.090;9.754;2023-11-22T00:50:00;7.20;99.90
22966;DHT22;11649;48.090;9.754;2023-11-22T00:52:28;7.20;99.90
22966;DHT22;11649;48.090;9.754;2023-11-22T00:54:55;7.20;99.90
22966;DHT22;11649;48.090;9.754;2023-11-22T00:57:22;7.20;99.90
22966;DHT22;11649;48.090;9.754;2023-11-22T00:59:49;7.20;99.90
22966;DHT22;11649;48.090;9.754;2023-11-22T01:02:16;7.20;99.90
22966;DHT22;11649;48.090;9.754;2023-11-22T01:04:43;7.20;99.90
22966;DHT22;11649;48.090;9.754;2023-11-22T01:07:10;7.30;99.90
22966;DHT22;11649;48.090;9.754;2023-11-22T01:09:37;7.30;99.90
22966;DHT22;11649;48.090;9.754;2023-11-22T01:12:04;7.30;99.90
22966;DHT22;11649;48.090;9.754;2023-11-22T01:14:30;7.30;99.90
22966;DHT22;11649;48.090;9.754;2023-11-22T01:16:57;7.30;99.90
22966;DHT22;11649;48.090;9.754;2023-11-22T01:19:24;7.20;99.90
22966;DHT22;11649;48.090;9.754;2023-11-22T01:21:52;7.20;99.90
22966;DHT22;11649;48.090;9.754;2023-11-22T01:24:19;7.10;99.90
22966;DHT22;11649;48.090;9.754;2023-11-22T01:26:46;7.00;99.90
22966;DHT22;11649;48.090;9.754;2023-11-22T01:29:13;7.10;99.90
22966;DHT22;11649;48.090;9.754;2023-11-22T01:31:39;7.00;99.90
22966;DHT22;11649;48.090;9.754;2023-11-22T01:34:08;7.00;99.90
22966;DHT22;11649;48.090;9.754;2023-11-22T01:36:41;7.00;99.90
22966;DHT22;11649;48.090;9.754;2023-11-22T01:39:10;7.00;99.90
22966;DHT22;11649;48.090;9.754;2023-11-22T01:41:37;7.00;99.90
22966;DHT22;11649;48.090;9.754;2023-11-22T01:44:03;6.90;99.90
22966;DHT22;11649;48.090;9.754;2023-11-22T01:46:30;6.90;99.90
22966;DHT22;11649;48.090;9.754;2023-11-22T01:48:57;6.90;99.90
22966;DHT22;11649;48.090;9.754;2023-11-22T01:51:24;7.00;99.90
22966;DHT22;11649;48.090;9.754;2023-11-22T01:53:54;7.00;99.90
22966;DHT22;11649;48.090;9.754;2023-11-22T01:56:26;7.10;99.90
22966;DHT22;11649;48.090;9.754;2023-11-22T01:58:55;7.20;99.90
22966;DHT22;11649;48.090;9.754;2023-11-22T02:01:22;7.20;99.90
22966;DHT22;11649;48.090;9.754;2023-11-22T02:03:49;7.20;99.90
22966;DHT22;11649;48.090;9.754;2023-11-22T02:06:16;7.20;99.90
22966;DHT22;11649;48.090;9.754;2023-11-22T02:08:43;7.10;99.90
22966;DHT22;11649;48.090;9.754;2023-11-22T02:11:10;7.00;99.90
22966;DHT22;11649;48.090;9.754;2023-11-22T02:13:37;7.00;99.90
22966;DHT22;11649;48.090;9.754;2023-11-22T02:16:04;7.00;99.90
22966;DHT22;11649;48.090;9.754;2023-11-22T02:18:31;7.00;99.90
22966;DHT22;11649;48.090;9.754;2023-11-22T02:20:58;7.00;99.90
22966;DHT22;11649;48.090;9.754;2023-11-22T02:23:25;7.10;99.90
22966;DHT22;11649;48.090;9.754;2023-11-22T02:25:53;7.20;99.90
22966;DHT22;11649;48.090;9.754;2023-11-22T02:28:21;7.30;99.90
22966;DHT22;11649;48.090;9.754;2023-11-22T02:30:47;7.30;99.90
22966;DHT22;11649;48.090;9.754;2023-11-22T02:33:14;7.30;99.90
22966;DHT22;11649;48.090;9.754;2023-11-22T02:35:41;7.30;99.90
22966;DHT22;11649;48.090;9.754;2023-11-22T02:38:08;7.30;99.90
22966;DHT22;11649;48.090;9.754;2023-11-22T02:40:35;7.30;99.90
22966;DHT22;11649;48.090;9.754;2023-11-22T02:43:02;7.30;99.90
22966;DHT22;11649;48.090;9.754;2023-11-22T02:45:35;7.30;99.90
22966;DHT22;11649;48.090;9.754;2023-11-22T02:48:02;7.20;99.90
22966;DHT22;11649;48.090;9.754;2023-11-22T02:50:49;7.10;99.90
22966;DHT22;11649;48.090;9.754;2023-11-22T02:53:16;7.00;99.90
22966;DHT22;11649;48.090;9.754;2023-11-22T02:55:43;7.10;99.90
22966;DHT22;11649;48.090;9.754;2023-11-22T02:58:10;7.10;99.90
22966;DHT22;11649;48.090;9.754;2023-11-22T03:00:40;7.10;99.90
22966;DHT22;11649;48.090;9.754;2023-11-22T03:03:07;7.20;99.90
22966;DHT22;11649;48.090;9.754;2023-11-22T03:05:37;7.10;99.90
22966;DHT22;11649;48.090;9.754;2023-11-22T03:08:04;7.20;99.90
22966;DHT22;11649;48.090;9.754;2023-11-22T03:10:30;7.20;99.90
22966;DHT22;11649;48.090;9.754;2023-11-22T03:12:58;7.10;99.90
22966;DHT22;11649;48.090;9.754;2023-11-22T03:15:25;7.10;99.90
22966;DHT22;11649;48.090;9.754;2023-11-22T03:17:52;7.00;99.90
22966;DHT22;11649;48.090;9.754;2023-11-22T03:20:19;6.70;99.90
22966;DHT22;11649;48.090;9.754;2023-11-22T03:22:46;6.50;99.90
22966;DHT22;11649;48.090;9.754;2023-11-22T03:25:15;6.40;99.90
22966;DHT22;11649;48.090;9.754;2023-11-22T03:27:42;6.30;99.90
22966;DHT22;11649;48.090;9.754;2023-11-22T03:30:09;6.20;99.90
22966;DHT22;11649;48.090;9.754;2023-11-22T03:32:39;6.20;99.90
22966;DHT22;11649;48.090;9.754;2023-11-22T03:35:07;6.00;99.90
22966;DHT22;11649;48.090;9.754;2023-11-22T03:37:34;6.00;99.90
22966;DHT22;11649;48.090;9.754;2023-11-22T03:40:01;5.90;99.90
22966;DHT22;11649;48.090;9.754;2023-11-22T03:42:28;5.90;99.90
22966;DHT22;11649;48.090;9.754;2023-11-22T03:44:55;5.80;99.90
22966;DHT22;11649;48.090;9.754;2023-11-22T03:47:22;5.80;99.90
22966;DHT22;11649;48.090;9.754;2023-11-22T03:49:49;5.80;99.90
22966;DHT22;11649;48.090;9.754;2023-11-22T03:52:16;5.80;99.90
22966;DHT22;11649;48.090;9.754;2023-11-22T03:54:42;5.80;99.90
22966;DHT22;11649;48.090;9.754;2023-11-22T03:57:09;5.80;99.90
22966;DHT22;11649;48.090;9.754;2023-11-22T03:59:36;5.80;99.90
22966;DHT22;11649;48.090;9.754;2023-11-22T04:02:03;5.80;99.90
22966;DHT22;11649;48.090;9.754;2023-11-22T04:04:30;5.60;99.90
22966;DHT22;11649;48.090;9.754;2023-11-22T04:06:57;5.60;99.90
22966;DHT22;11649;48.090;9.754;2023-11-22T04:09:24;5.60;99.90
22966;DHT22;11649;48.090;9.754;2023-11-22T04:11:51;5.60;99.90
22966;DHT22;11649;48.090;9.754;2023-11-22T04:14:17;5.70;99.90
22966;DHT22;11649;48.090;9.754;2023-11-22T04:16:47;5.70;99.90
22966;DHT22;11649;48.090;9.754;2023-11-22T04:19:14;5.60;99.90
22966;DHT22;11649;48.090;9.754;2023-11-22T04:21:42;5.60;99.90
22966;DHT22;11649;48.090;9.754;2023-11-22T04:24:08;5.60;99.90
22966;DHT22;11649;48.090;9.754;2023-11-22T04:26:35;5.50;99.90
22966;DHT22;11649;48.090;9.754;2023-11-22T04:29:03;5.50;99.90
22966;DHT22;11649;48.090;9.754;2023-11-22T04:31:31;5.50;99.90
22966;DHT22;11649;48.090;9.754;2023-11-22T04:33:57;5.50;99.90
22966;DHT22;11649;48.090;9.754;2023-11-22T04:36:26;5.40;99.90
22966;DHT22;11649;48.090;9.754;2023-11-22T04:38:52;5.50;99.90
22966;DHT22;11649;48.090;9.754;2023-11-22T04:41:19;5.40;99.90
22966;DHT22;11649;48.090;9.754;2023-11-22T04:43:46;5.40;99.90
22966;DHT22;11649;48.090;9.754;2023-11-22T04:46:13;5.50;99.90
22966;DHT22;11649;48.090;9.754;2023-11-22T04:48:40;5.40;99.90
22966;DHT22;11649;48.090;9.754;2023-11-22T04:51:07;5.30;99.90
22966;DHT22;11649;48.090;9.754;2023-11-22T04:53:34;5.20;99.90
22966;DHT22;11649;48.090;9.754;2023-11-22T04:56:01;5.20;99.90
22966;DHT22;11649;48.090;9.754;2023-11-22T04:58:33;5.10;99.90
22966;DHT22;11649;48.090;9.754;2023-11-22T05:01:00;5.10;99.90
22966;DHT22;11649;48.090;9.754;2023-11-22T05:03:28;5.10;99.90
22966;DHT22;11649;48.090;9.754;2023-11-22T05:05:55;5.10;99.90
22966;DHT22;11649;48.090;9.754;2023-11-22T05:08:22;5.10;99.90
22966;DHT22;11649;48.090;9.754;2023-11-22T05:10:49;5.10;99.90
22966;DHT22;11649;48.090;9.754;2023-11-22T05:13:17;5.10;99.90
22966;DHT22;11649;48.090;9.754;2023-11-22T05:15:44;5.00;99.90
22966;DHT22;11649;48.090;9.754;2023-11-22T05:18:10;4.90;99.90
22966;DHT22;11649;48.090;9.754;2023-11-22T05:20:37;5.00;99.90
22966;DHT22;11649;48.090;9.754;2023-11-22T05:23:04;5.00;99.90
22966;DHT22;11649;48.090;9.754;2023-11-22T05:25:31;5.00;99.90
22966;DHT22;11649;48.090;9.754;2023-11-22T05:27:58;5.00;99.90
22966;DHT22;11649;48.090;9.754;2023-11-22T05:30:25;4.90;99.90
22966;DHT22;11649;48.090;9.754;2023-11-22T05:32:52;4.90;99.90
22966;DHT22;11649;48.090;9.754;2023-11-22T05:35:19;5.00;99.90
22966;DHT22;11649;48.090;9.754;2023-11-22T05:37:47;5.10;99.90
22966;DHT22;11649;48.090;9.754;2023-11-22T05:40:14;5.10;99.90
22966;DHT22;11649;48.090;9.754;2023-11-22T05:42:42;5.10;99.90
22966;DHT22;11649;48.090;9.754;2023-11-22T05:45:09;5.00;99.90
22966;DHT22;11649;48.090;9.754;2023-11-22T05:47:36;5.10;99.90
22966;DHT22;11649;48.090;9.754;2023-11-22T05:50:05;5.10;99.90
22966;DHT22;11649;48.090;9.754;2023-11-22T05:52:32;5.10;99.90
22966;DHT22;11649;48.090;9.754;2023-11-22T05:54:59;5.10;99.90
22966;DHT22;11649;48.090;9.754;2023-11-22T05:57:30;5.10;99.90
22966;DHT22;11649;48.090;9.754;2023-11-22T05:59:57;5.10;99.90
22966;DHT22;11649;48.090;9.754;2023-11-22T06:02:24;5.10;99.90
22966;DHT22;11649;48.090;9.754;2023-11-22T06:04:51;5.10;99.90
22966;DHT22;11649;48.090;9.754;2023-11-22T06:07:18;5.00;99.90
22966;DHT22;11649;48.090;9.754;2023-11-22T06:09:44;5.00;99.90
22966;DHT22;11649;48.090;9.754;2023-11-22T06:12:11;4.90;99.90
22966;DHT22;11649;48.090;9.754;2023-11-22T06:14:38;4.90;99.90
22966;DHT22;11649;48.090;9.754;2023-11-22T06:17:05;4.90;99.90
22966;DHT22;11649;48.090;9.754;2023-11-22T06:19:32;4.80;99.90
22966;DHT22;11649;48.090;9.754;2023-11-22T06:21:59;4.70;99.90
22966;DHT22;11649;48.090;9.754;2023-11-22T06:24:28;4.60;99.90
22966;DHT22;11649;48.090;9.754;2023-11-22T06:26:55;4.50;99.90
22966;DHT22;11649;48.090;9.754;2023-11-22T06:29:21;4.50;99.90
22966;DHT22;11649;48.090;9.754;2023-11-22T06:31:48;4.60;99.90
22966;DHT22;11649;48.090;9.754;2023-11-22T06:34:15;4.50;99.90
22966;DHT22;11649;48.090;9.754;2023-11-22T06:36:42;4.50;99.90
22966;DHT22;11649;48.090;9.754;2023-11-22T06:39:08;4.50;99.90
22966;DHT22;11649;48.090;9.754;2023-11-22T06:41:36;4.50;99.90
22966;DHT22;11649;48.090;9.754;2023-11-22T06:44:03;4.50;99.90
22966;DHT22;11649;48.090;9.754;2023-11-22T06:46:30;4.40;99.90
22966;DHT22;11649;48.090;9.754;2023-11-22T06:48:57;4.30;99.90
22966;DHT22;11649;48.090;9.754;2023-11-22T06:51:25;4.40;99.90
22966;DHT22;11649;48.090;9.754;2023-11-22T06:53:52;4.40;99.90
22966;DHT22;11649;48.090;9.754;2023-11-22T06:56:23;4.40;99.90
22966;DHT22;11649;48.090;9.754;2023-11-22T06:58:49;4.30;99.90
22966;DHT22;11649;48.090;9.754;2023-11-22T07:01:17;4.40;99.90
22966;DHT22;11649;48.090;9.754;2023-11-22T07:03:44;4.30;99.90
22966;DHT22;11649;48.090;9.754;2023-11-22T07:06:11;4.20;99.90
22966;DHT22;11649;48.090;9.754;2023-11-22T07:08:38;4.10;99.90
22966;DHT22;11649;48.090;9.754;2023-11-22T07:11:05;4.10;99.90
22966;DHT22;11649;48.090;9.754;2023-11-22T07:13:36;4.10;99.90
22966;DHT22;11649;48.090;9.754;2023-11-22T07:16:05;4.10;99.90
22966;DHT22;11649;48.090;9.754;2023-11-22T07:18:33;4.10;99.90
22966;DHT22;11649;48.090;9.754;2023-11-22T07:21:00;4.00;99.90
22966;DHT22;11649;48.090;9.754;2023-11-22T07:23:27;4.00;99.90
22966;DHT22;11649;48.090;9.754;2023-11-22T07:25:55;4.00;99.90
22966;DHT22;11649;48.090;9.754;2023-11-22T07:28:22;4.00;99.90
22966;DHT22;11649;48.090;9.754;2023-11-22T07:30:49;4.00;99.90
22966;DHT22;11649;48.090;9.754;2023-11-22T07:33:16;4.00;99.90
22966;DHT22;11649;48.090;9.754;2023-11-22T07:35:43;3.90;99.90
22966;DHT22;11649;48.090;9.754;2023-11-22T07:38:10;3.90;99.90
22966;DHT22;11649;48.090;9.754;2023-11-22T07:40:39;3.90;99.90
22966;DHT22;11649;48.090;9.754;2023-11-22T07:43:06;3.90;99.90
22966;DHT22;11649;48.090;9.754;2023-11-22T07:45:34;3.80;99.90
22966;DHT22;11649;48.090;9.754;2023-11-22T07:48:00;3.80;99.90
22966;DHT22;11649;48.090;9.754;2023-11-22T07:50:29;3.80;99.90
22966;DHT22;11649;48.090;9.754;2023-11-22T07:52:56;3.80;99.90
22966;DHT22;11649;48.090;9.754;2023-11-22T07:55:23;3.80;99.90
22966;DHT22;11649;48.090;9.754;2023-11-22T07:57:50;3.70;99.90
22966;DHT22;11649;48.090;9.754;2023-11-22T08:00:18;3.70;99.90
22966;DHT22;11649;48.090;9.754;2023-11-22T08:02:46;3.70;99.90
22966;DHT22;11649;48.090;9.754;2023-11-22T08:05:13;3.80;99.90
22966;DHT22;11649;48.090;9.754;2023-11-22T08:07:42;3.80;99.90
22966;DHT22;11649;48.090;9.754;2023-11-22T08:10:13;3.80;99.90
22966;DHT22;11649;48.090;9.754;2023-11-22T08:12:47;3.70;99.90
22966;DHT22;11649;48.090;9.754;2023-11-22T08:15:16;3.60;99.90
22966;DHT22;11649;48.090;9.754;2023-11-22T08:17:44;3.70;99.90
22966;DHT22;11649;48.090;9.754;2023-11-22T08:20:11;3.50;99.90
22966;DHT22;11649;48.090;9.754;2023-11-22T08:22:45;3.50;99.90
22966;DHT22;11649;48.090;9.754;2023-11-22T08:25:12;3.60;99.90
22966;DHT22;11649;48.090;9.754;2023-11-22T08:27:40;3.70;99.90
22966;DHT22;11649;48.090;9.754;2023-11-22T08:30:09;3.70;99.90
22966;DHT22;11649;48.090;9.754;2023-11-22T08:32:44;3.80;99.90
22966;DHT22;11649;48.090;9.754;2023-11-22T08:35:14;3.90;99.90
22966;DHT22;11649;48.090;9.754;2023-11-22T08:37:42;3.80;99.90
22966;DHT22;11649;48.090;9.754;2023-11-22T08:40:10;3.80;99.90
22966;DHT22;11649;48.090;9.754;2023-11-22T08:42:49;3.80;99.90
22966;DHT22;11649;48.090;9.754;2023-11-22T08:45:16;3.50;99.90
22966;DHT22;11649;48.090;9.754;2023-11-22T08:47:43;3.50;99.90
22966;DHT22;11649;48.090;9.754;2023-11-22T08:50:10;3.50;99.90
22966;DHT22;11649;48.090;9.754;2023-11-22T08:52:42;3.50;99.90
22966;DHT22;11649;48.090;9.754;2023-11-22T08:55:09;3.50;99.90
22966;DHT22;11649;48.090;9.754;2023-11-22T08:57:36;3.50;99.90
22966;DHT22;11649;48.090;9.754;2023-11-22T09:00:07;3.50;99.90
22966;DHT22;11649;48.090;9.754;2023-11-22T09:02:37;3.60;99.90
22966;DHT22;11649;48.090;9.754;2023-11-22T09:05:04;3.50;99.90
22966;DHT22;11649;48.090;9.754;2023-11-22T09:07:35;3.50;99.90
22966;DHT22;11649;48.090;9.754;2023-11-22T09:10:03;3.20;99.90
22966;DHT22;11649;48.090;9.754;2023-11-22T09:12:38;3.30;99.90
22966;DHT22;11649;48.090;9.754;2023-11-22T09:15:11;3.50;99.90
22966;DHT22;11649;48.090;9.754;2023-11-22T09:17:44;3.60;99.90
22966;DHT22;11649;48.090;9.754;2023-11-22T09:20:13;3.80;99.90
22966;DHT22;11649;48.090;9.754;2023-11-22T09:22:52;3.60;99.90
22966;DHT22;11649;48.090;9.754;2023-11-22T09:25:24;3.50;99.90
22966;DHT22;11649;48.090;9.754;2023-11-22T09:27:53;3.50;99.90
22966;DHT22;11649;48.090;9.754;2023-11-22T09:30:23;3.60;99.90
22966;DHT22;11649;48.090;9.754;2023-11-22T09:33:10;3.50;99.90
22966;DHT22;11649;48.090;9.754;2023-11-22T09:35:38;3.70;99.90
22966;DHT22;11649;48.090;9.754;2023-11-22T09:38:07;3.90;99.90
22966;DHT22;11649;48.090;9.754;2023-11-22T09:40:48;3.90;99.90
22966;DHT22;11649;48.090;9.754;2023-11-22T09:43:19;3.80;99.90
22966;DHT22;11649;48.090;9.754;2023-11-22T09:53:36;4.00;99.90
22966;DHT22;11649;48.090;9.754;2023-11-22T09:56:04;4.20;99.90
22966;DHT22;11649;48.090;9.754;2023-11-22T09:58:34;4.10;99.90
22966;DHT22;11649;48.090;9.754;2023-11-22T10:01:07;4.00;99.90
22966;DHT22;11649;48.090;9.754;2023-11-22T10:03:35;4.20;99.90
22966;DHT22;11649;48.090;9.754;2023-11-22T10:06:03;3.90;99.90
22966;DHT22;11649;48.090;9.754;2023-11-22T10:08:31;3.90;99.90
22966;DHT22;11649;48.090;9.754;2023-11-22T10:10:59;4.10;99.90
22966;DHT22;11649;48.090;9.754;2023-11-22T10:13:26;4.30;99.90
22966;DHT22;11649;48.090;9.754;2023-11-22T10:15:53;4.30;99.90
22966;DHT22;11649;48.090;9.754;2023-11-22T10:18:20;4.30;99.90
22966;DHT22;11649;48.090;9.754;2023-11-22T10:20:49;4.30;99.90
22966;DHT22;11649;48.090;9.754;2023-11-22T10:23:17;4.40;99.90
22966;DHT22;11649;48.090;9.754;2023-11-22T10:25:49;4.40;99.90
22966;DHT22;11649;48.090;9.754;2023-11-22T10:28:25;4.30;99.90
22966;DHT22;11649;48.090;9.754;2023-11-22T10:30:53;4.40;99.90
22966;DHT22;11649;48.090;9.754;2023-11-22T10:33:20;4.30;99.90
22966;DHT22;11649;48.090;9.754;2023-11-22T10:35:51;4.10;99.90
22966;DHT22;11649;48.090;9.754;2023-11-22T10:38:20;4.00;99.90
22966;DHT22;11649;48.090;9.754;2023-11-22T10:40:47;3.90;99.90
22966;DHT22;11649;48.090;9.754;2023-11-22T10:43:15;4.00;99.90
22966;DHT22;11649;48.090;9.754;2023-11-22T10:45:43;4.00;99.90
22966;DHT22;11649;48.090;9.754;2023-11-22T10:48:16;4.00;99.90
22966;DHT22;11649;48.090;9.754;2023-11-22T10:50:47;4.10;99.90
22966;DHT22;11649;48.090;9.754;2023-11-22T10:53:21;4.10;99.90
22966;DHT22;11649;48.090;9.754;2023-11-22T10:55:57;4.20;99.90
22966;DHT22;11649;48.090;9.754;2023-11-22T10:58:28;4.20;99.90
22966;DHT22;11649;48.090;9.754;2023-11-22T11:01:00;4.30;99.90
22966;DHT22;11649;48.090;9.754;2023-11-22T11:03:28;4.30;99.90
22966;DHT22;11649;48.090;9.754;2023-11-22T11:06:08;4.50;99.90
22966;DHT22;11649;48.090;9.754;2023-11-22T11:08:39;4.50;99.90
22966;DHT22;11649;48.090;9.754;2023-11-22T11:11:07;4.60;99.90
22966;DHT22;11649;48.090;9.754;2023-11-22T11:13:35;4.80;99.90
22966;DHT22;11649;48.090;9.754;2023-11-22T11:16:02;4.80;99.90
22966;DHT22;11649;48.090;9.754;2023-11-22T11:18:29;4.80;99.90
22966;DHT22;11649;48.090;9.754;2023-11-22T11:20:59;4.80;99.90
22966;DHT22;11649;48.090;9.754;2023-11-22T11:23:33;4.80;99.90
22966;DHT22;11649;48.090;9.754;2023-11-22T11:26:09;4.80;99.90
22966;DHT22;11649;48.090;9.754;2023-11-22T11:28:43;4.80;99.90
22966;DHT22;11649;48.090;9.754;2023-11-22T11:31:11;4.70;99.90
22966;DHT22;11649;48.090;9.754;2023-11-22T11:33:58;4.60;99.90
22966;DHT22;11649;48.090;9.754;2023-11-22T11:38:55;4.60;99.90
22966;DHT22;11649;48.090;9.754;2023-11-22T11:41:27;4.40;99.90
22966;DHT22;11649;48.090;9.754;2023-11-22T11:43:56;4.40;99.90
22966;DHT22;11649;48.090;9.754;2023-11-22T11:46:23;4.40;99.90
22966;DHT22;11649;48.090;9.754;2023-11-22T11:48:53;4.30;99.90
22966;DHT22;11649;48.090;9.754;2023-11-22T11:51:25;4.30;99.90
22966;DHT22;11649;48.090;9.754;2023-11-22T11:53:53;4.20;99.90
22966;DHT22;11649;48.090;9.754;2023-11-22T11:56:21;4.10;99.90
22966;DHT22;11649;48.090;9.754;2023-11-22T11:58:49;3.90;99.90
22966;DHT22;11649;48.090;9.754;2023-11-22T12:01:17;3.90;99.90
22966;DHT22;11649;48.090;9.754;2023-11-22T12:03:47;3.90;99.90
22966;DHT22;11649;48.090;9.754;2023-11-22T12:06:17;3.80;99.90
22966;DHT22;11649;48.090;9.754;2023-11-22T12:08:46;3.80;99.90
22966;DHT22;11649;48.090;9.754;2023-11-22T12:11:15;3.90;99.90
22966;DHT22;11649;48.090;9.754;2023-11-22T12:13:42;4.00;99.90
22966;DHT22;11649;48.090;9.754;2023-11-22T12:16:17;4.10;99.90
22966;DHT22;11649;48.090;9.754;2023-11-22T12:18:49;4.20;99.90
22966;DHT22;11649;48.090;9.754;2023-11-22T12:21:17;4.20;99.90
22966;DHT22;11649;48.090;9.754;2023-11-22T12:23:46;4.20;99.90
22966;DHT22;11649;48.090;9.754;2023-11-22T12:26:16;4.30;99.90
22966;DHT22;11649;48.090;9.754;2023-11-22T12:28:49;4.40;99.90
22966;DHT22;11649;48.090;9.754;2023-11-22T12:31:29;4.20;99.90
22966;DHT22;11649;48.090;9.754;2023-11-22T12:34:02;4.20;99.90
22966;DHT22;11649;48.090;9.754;2023-11-22T12:36:29;4.00;99.90
22966;DHT22;11649;48.090;9.754;2023-11-22T12:38:56;4.00;99.90
22966;DHT22;11649;48.090;9.754;2023-11-22T12:41:26;4.00;99.90
22966;DHT22;11649;48.090;9.754;2023-11-22T12:44:06;3.90;99.90
22966;DHT22;11649;48.090;9.754;2023-11-22T12:46:53;3.90;99.90
22966;DHT22;11649;48.090;9.754;2023-11-22T12:49:27;3.90;99.90
22966;DHT22;11649;48.090;9.754;2023-11-22T12:51:55;3.90;99.90
22966;DHT22;11649;48.090;9.754;2023-11-22T12:54:24;4.00;99.90
22966;DHT22;11649;48.090;9.754;2023-11-22T12:56:51;3.90;99.90
22966;DHT22;11649;48.090;9.754;2023-11-22T12:59:24;3.90;99.90
22966;DHT22;11649;48.090;9.754;2023-11-22T13:01:54;3.70;99.90
22966;DHT22;11649;48.090;9.754;2023-11-22T13:04:21;3.80;99.90
22966;DHT22;11649;48.090;9.754;2023-11-22T13:06:48;3.90;99.90
22966;DHT22;11649;48.090;9.754;2023-11-22T13:09:15;4.00;99.90
22966;DHT22;11649;48.090;9.754;2023-11-22T13:11:43;4.10;99.90
22966;DHT22;11649;48.090;9.754;2023-11-22T13:14:10;4.10;99.90
22966;DHT22;11649;48.090;9.754;2023-11-22T13:16:40;4.10;99.90
22966;DHT22;11649;48.090;9.754;2023-11-22T13:19:08;3.80;99.90
22966;DHT22;11649;48.090;9.754;2023-11-22T13:21:36;3.80;99.90
22966;DHT22;11649;48.090;9.754;2023-11-22T13:24:03;3.80;99.90
22966;DHT22;11649;48.090;9.754;2023-11-22T13:26:31;3.80;99.90
22966;DHT22;11649;48.090;9.754;2023-11-22T13:28:58;3.90;99.90
22966;DHT22;11649;48.090;9.754;2023-11-22T13:31:25;3.80;99.90
22966;DHT22;11649;48.090;9.754;2023-11-22T13:33:52;3.40;99.90
22966;DHT22;11649;48.090;9.754;2023-11-22T13:36:19;3.40;99.90
22966;DHT22;11649;48.090;9.754;2023-11-22T13:38:46;3.60;99.90
22966;DHT22;11649;48.090;9.754;2023-11-22T13:41:13;3.70;99.90
22966;DHT22;11649;48.090;9.754;2023-11-22T13:43:39;3.80;99.90
22966;DHT22;11649;48.090;9.754;2023-11-22T13:46:06;3.80;99.90
22966;DHT22;11649;48.090;9.754;2023-11-22T13:48:36;3.80;99.90
22966;DHT22;11649;48.090;9.754;2023-11-22T13:51:03;4.00;99.90
22966;DHT22;11649;48.090;9.754;2023-11-22T13:53:33;3.60;99.90
22966;DHT22;11649;48.090;9.754;2023-11-22T13:56:03;3.60;99.90
22966;DHT22;11649;48.090;9.754;2023-11-22T13:58:35;3.60;99.90
22966;DHT22;11649;48.090;9.754;2023-11-22T14:01:02;3.30;99.90
22966;DHT22;11649;48.090;9.754;2023-11-22T14:03:32;3.10;99.90
22966;DHT22;11649;48.090;9.754;2023-11-22T14:06:00;3.00;99.90
22966;DHT22;11649;48.090;9.754;2023-11-22T14:08:27;3.00;99.90
22966;DHT22;11649;48.090;9.754;2023-11-22T14:10:54;3.10;99.90
22966;DHT22;11649;48.090;9.754;2023-11-22T14:13:21;3.20;99.90
22966;DHT22;11649;48.090;9.754;2023-11-22T14:15:48;3.20;99.90
22966;DHT22;11649;48.090;9.754;2023-11-22T14:18:15;3.20;99.90
22966;DHT22;11649;48.090;9.754;2023-11-22T14:20:45;3.30;99.90
22966;DHT22;11649;48.090;9.754;2023-11-22T14:23:12;3.50;99.90
22966;DHT22;11649;48.090;9.754;2023-11-22T14:25:39;3.60;99.90
22966;DHT22;11649;48.090;9.754;2023-11-22T14:28:08;3.60;99.90
22966;DHT22;11649;48.090;9.754;2023-11-22T14:30:35;3.50;99.90
22966;DHT22;11649;48.090;9.754;2023-11-22T14:33:03;3.60;99.90
22966;DHT22;11649;48.090;9.754;2023-11-22T14:35:35;3.70;99.90
22966;DHT22;11649;48.090;9.754;2023-11-22T14:38:02;3.60;99.90
22966;DHT22;11649;48.090;9.754;2023-11-22T14:40:33;3.60;99.90
22966;DHT22;11649;48.090;9.754;2023-11-22T14:43:02;3.50;99.90
22966;DHT22;11649;48.090;9.754;2023-11-22T14:45:30;3.50;99.90
22966;DHT22;11649;48.090;9.754;2023-11-22T14:47:58;3.60;99.90
22966;DHT22;11649;48.090;9.754;2023-11-22T14:50:27;3.70;99.90
22966;DHT22;11649;48.090;9.754;2023-11-22T14:52:55;3.60;99.90
22966;DHT22;11649;48.090;9.754;2023-11-22T14:55:22;3.60;99.90
22966;DHT22;11649;48.090;9.754;2023-11-22T14:57:52;3.70;99.90
22966;DHT22;11649;48.090;9.754;2023-11-22T15:00:24;3.80;99.90
22966;DHT22;11649;48.090;9.754;2023-11-22T15:02:51;3.80;99.90
22966;DHT22;11649;48.090;9.754;2023-11-22T15:05:21;3.80;99.90
22966;DHT22;11649;48.090;9.754;2023-11-22T15:07:49;3.80;99.90
22966;DHT22;11649;48.090;9.754;2023-11-22T15:10:21;3.80;99.90
22966;DHT22;11649;48.090;9.754;2023-11-22T15:12:48;3.50;99.90
22966;DHT22;11649;48.090;9.754;2023-11-22T15:15:15;3.60;99.90
22966;DHT22;11649;48.090;9.754;2023-11-22T15:17:42;3.60;99.90
22966;DHT22;11649;48.090;9.754;2023-11-22T15:20:10;3.60;99.90
22966;DHT22;11649;48.090;9.754;2023-11-22T15:22:38;3.60;99.90
22966;DHT22;11649;48.090;9.754;2023-11-22T15:25:05;3.60;99.90
22966;DHT22;11649;48.090;9.754;2023-11-22T15:27:32;3.70;99.90
22966;DHT22;11649;48.090;9.754;2023-11-22T15:29:59;3.70;99.90
22966;DHT22;11649;48.090;9.754;2023-11-22T15:32:27;3.60;99.90
22966;DHT22;11649;48.090;9.754;2023-11-22T15:34:55;3.60;99.90
22966;DHT22;11649;48.090;9.754;2023-11-22T15:37:21;3.60;99.90
22966;DHT22;11649;48.090;9.754;2023-11-22T15:39:48;3.50;99.90
22966;DHT22;11649;48.090;9.754;2023-11-22T15:42:15;3.50;99.90
22966;DHT22;11649;48.090;9.754;2023-11-22T15:44:42;3.50;99.90
22966;DHT22;11649;48.090;9.754;2023-11-22T15:47:09;3.60;99.90
22966;DHT22;11649;48.090;9.754;2023-11-22T15:49:40;3.70;99.90
22966;DHT22;11649;48.090;9.754;2023-11-22T15:52:07;3.80;99.90
22966;DHT22;11649;48.090;9.754;2023-11-22T15:54:34;3.80;99.90
22966;DHT22;11649;48.090;9.754;2023-11-22T15:57:01;3.80;99.90
22966;DHT22;11649;48.090;9.754;2023-11-22T15:59:28;3.80;99.90
22966;DHT22;11649;48.090;9.754;2023-11-22T16:01:55;3.80;99.90